Time;durP1;ratioP1;P1;durP2;ratioP2;P2;SDS_P1;SDS_P2;PMS_P1;PMS_P2;Temp;Humidity;BMP_temperature;BMP_pressure;BME280_temperature;BME280_humidity;BME280_pressure;Samples;Min_cycle;Max_cycle;Signal;HPM_P1;HPM_P2
2021/05/26 00:01:50;;;;;;;8.57;7.93;;;9.00;99.90;;;;;;5050786;28;20207;-66
2021/05/26 00:04:16;;;;;;;9.53;8.67;;;8.90;99.90;;;;;;5033228;28;20726;-66
2021/05/26 00:06:42;;;;;;;10.80;9.73;;;9.00;99.90;;;;;;5051139;28;20182;-67
2021/05/26 00:09:07;;;;;;;12.00;10.50;;;9.00;99.90;;;;;;5032969;28;20178;-67
2021/05/26 00:11:33;;;;;;;13.37;10.53;;;9.00;99.90;;;;;;5032758;28;20233;-66
2021/05/26 00:13:59;;;;;;;10.47;9.40;;;9.00;99.90;;;;;;5032862;28;20216;-67
2021/05/26 00:16:25;;;;;;;14.67;9.87;;;9.00;99.90;;;;;;5051004;28;20171;-66
2021/05/26 00:18:52;;;;;;;13.30;9.90;;;9.10;99.90;;;;;;5050849;28;20179;-66
2021/05/26 00:21:19;;;;;;;12.07;9.33;;;9.00;99.90;;;;;;5050477;28;20206;-67
2021/05/26 00:23:45;;;;;;;11.37;9.00;;;9.10;99.90;;;;;;5050666;28;20324;-65
2021/05/26 00:26:10;;;;;;;12.03;8.83;;;9.00;99.90;;;;;;5051041;28;20258;-67
2021/05/26 00:28:36;;;;;;;9.73;8.53;;;9.00;99.90;;;;;;5032915;28;20224;-67
2021/05/26 00:31:04;;;;;;;15.40;10.37;;;9.10;99.90;;;;;;5052803;28;20230;-67
2021/05/26 00:33:30;;;;;;;15.60;10.00;;;9.10;99.90;;;;;;5054124;28;20655;-67
2021/05/26 00:35:55;;;;;;;10.70;8.93;;;9.10;99.90;;;;;;5054523;28;20210;-66
2021/05/26 00:38:21;;;;;;;12.43;9.87;;;9.00;99.90;;;;;;5054245;28;20187;-65
2021/05/26 00:40:47;;;;;;;13.43;9.47;;;9.00;99.90;;;;;;5054000;28;20175;-66
2021/05/26 00:43:16;;;;;;;13.60;9.07;;;9.00;99.90;;;;;;5054168;28;20277;-67
2021/05/26 00:45:42;;;;;;;14.30;8.43;;;9.00;99.90;;;;;;5054247;28;20588;-67
2021/05/26 00:48:08;;;;;;;10.63;8.70;;;9.00;99.90;;;;;;5054037;28;20185;-67
2021/05/26 00:50:36;;;;;;;14.53;9.57;;;9.00;99.90;;;;;;5053813;28;20735;-66
2021/05/26 00:53:04;;;;;;;9.37;8.47;;;9.00;99.90;;;;;;5054015;28;20217;-66
2021/05/26 00:55:30;;;;;;;16.77;8.73;;;9.00;99.90;;;;;;5053874;28;20171;-66
2021/05/26 00:57:58;;;;;;;12.80;8.70;;;9.00;99.90;;;;;;5054229;28;20171;-67
2021/05/26 01:00:25;;;;;;;12.67;7.77;;;9.00;99.90;;;;;;5053476;28;20175;-66
2021/05/26 01:02:51;;;;;;;12.93;8.53;;;9.00;99.90;;;;;;5053836;28;20202;-67
2021/05/26 01:05:19;;;;;;;12.60;8.57;;;9.00;99.90;;;;;;5053883;28;20185;-67
2021/05/26 01:07:44;;;;;;;15.80;9.07;;;9.00;99.90;;;;;;5053836;28;20648;-66
2021/05/26 01:10:13;;;;;;;12.97;8.93;;;9.00;99.90;;;;;;5053384;28;20213;-67
2021/05/26 01:12:38;;;;;;;12.20;9.10;;;9.00;99.90;;;;;;5053768;28;20191;-66
2021/05/26 01:15:07;;;;;;;9.50;8.33;;;9.10;99.90;;;;;;5053772;28;20220;-66
2021/05/26 01:17:34;;;;;;;13.63;9.93;;;9.10;99.90;;;;;;5053535;28;20644;-66
2021/05/26 01:20:00;;;;;;;9.70;8.47;;;9.00;99.90;;;;;;5053482;28;20297;-67
2021/05/26 01:22:26;;;;;;;11.60;7.93;;;9.10;99.90;;;;;;5053628;28;20210;-66
2021/05/26 01:24:51;;;;;;;15.40;8.33;;;9.10;99.90;;;;;;5035571;28;20194;-64
2021/05/26 01:27:17;;;;;;;12.73;7.83;;;9.10;99.90;;;;;;5053254;28;20670;-64
2021/05/26 01:29:43;;;;;;;11.93;8.60;;;9.20;99.90;;;;;;5053049;28;20260;-65
2021/05/26 01:32:09;;;;;;;11.67;8.43;;;9.10;99.90;;;;;;5053209;28;20209;-65
2021/05/26 01:34:34;;;;;;;17.03;9.17;;;9.10;99.90;;;;;;5053105;28;20695;-64
2021/05/26 01:37:00;;;;;;;9.10;8.27;;;9.10;99.90;;;;;;5053169;28;20179;-65
2021/05/26 01:39:26;;;;;;;11.93;8.60;;;9.20;99.90;;;;;;5053086;28;20175;-65
2021/05/26 01:41:51;;;;;;;9.23;8.33;;;9.10;99.90;;;;;;5052654;28;20229;-64
2021/05/26 01:44:17;;;;;;;10.90;8.70;;;9.20;99.90;;;;;;5053193;28;20186;-64
2021/05/26 01:46:43;;;;;;;15.93;9.33;;;9.20;99.90;;;;;;5053163;28;20179;-66
2021/05/26 01:49:09;;;;;;;13.93;8.93;;;9.20;99.90;;;;;;5053035;28;20236;-64
2021/05/26 01:51:35;;;;;;;14.37;8.90;;;9.20;99.90;;;;;;5052368;28;20238;-65
2021/05/26 01:54:03;;;;;;;16.63;8.87;;;9.20;99.90;;;;;;5052950;28;20182;-64
2021/05/26 01:56:30;;;;;;;18.10;8.90;;;9.20;99.90;;;;;;5052903;28;20170;-64
2021/05/26 01:58:57;;;;;;;10.40;9.40;;;9.20;99.90;;;;;;5052759;28;20221;-64
2021/05/26 02:01:24;;;;;;;10.50;9.40;;;9.20;99.90;;;;;;5052429;28;20255;-64
2021/05/26 02:03:51;;;;;;;16.47;9.07;;;9.10;99.90;;;;;;5052501;28;20193;-64
2021/05/26 02:06:18;;;;;;;16.23;9.47;;;9.20;99.90;;;;;;5052788;28;20521;-64
2021/05/26 02:08:45;;;;;;;16.20;10.07;;;9.20;99.90;;;;;;5052571;28;20240;-66
2021/05/26 02:14:04;;;;;;;16.57;11.87;;;9.20;99.90;;;;;;5052806;28;20194;-64
2021/05/26 02:16:29;;;;;;;13.10;9.17;;;9.20;99.90;;;;;;5052542;28;20170;-66
2021/05/26 02:18:55;;;;;;;11.73;8.80;;;9.20;99.90;;;;;;5052332;28;20189;-64
2021/05/26 02:21:21;;;;;;;14.47;8.97;;;9.20;99.90;;;;;;5051988;28;20210;-64
2021/05/26 02:23:47;;;;;;;14.00;9.03;;;9.20;99.90;;;;;;5034329;28;20297;-65
2021/05/26 02:26:14;;;;;;;16.23;9.97;;;9.30;99.90;;;;;;5052433;28;20198;-65
2021/05/26 02:28:40;;;;;;;19.50;10.60;;;9.30;99.90;;;;;;5052149;28;20187;-65
2021/05/26 02:31:07;;;;;;;15.53;9.50;;;9.30;99.90;;;;;;5051926;28;20203;-65
2021/05/26 02:33:32;;;;;;;11.23;9.87;;;9.30;99.90;;;;;;5051828;28;20178;-66
2021/05/26 02:35:58;;;;;;;15.23;9.37;;;9.30;99.90;;;;;;5052232;28;20590;-65
2021/05/26 02:38:23;;;;;;;13.77;9.93;;;9.30;99.90;;;;;;5051896;28;20179;-65
2021/05/26 02:40:49;;;;;;;15.73;9.73;;;9.30;99.90;;;;;;5050963;28;20179;-66
2021/05/26 02:43:15;;;;;;;16.73;10.20;;;9.30;99.90;;;;;;5051873;28;20210;-66
2021/05/26 02:45:40;;;;;;;16.37;9.67;;;9.20;99.90;;;;;;5051830;28;20524;-65
2021/05/26 02:48:06;;;;;;;14.97;11.10;;;9.20;99.90;;;;;;5034281;28;20183;-67
2021/05/26 02:50:32;;;;;;;12.33;9.90;;;9.20;99.90;;;;;;5051587;28;20206;-65
2021/05/26 02:52:58;;;;;;;18.67;9.40;;;9.20;99.90;;;;;;5051273;28;20685;-66
2021/05/26 02:55:25;;;;;;;13.87;10.47;;;9.10;99.90;;;;;;5051962;28;20171;-65
2021/05/26 02:57:51;;;;;;;12.47;9.47;;;9.10;99.90;;;;;;5051647;28;20564;-66
2021/05/26 03:00:20;;;;;;;15.33;9.43;;;9.20;99.90;;;;;;5051630;28;20177;-65
2021/05/26 03:02:46;;;;;;;19.13;9.00;;;9.20;99.90;;;;;;5033520;28;20205;-64
2021/05/26 03:05:13;;;;;;;13.03;8.03;;;9.20;99.90;;;;;;5051823;28;20179;-65
2021/05/26 03:07:42;;;;;;;11.50;8.93;;;9.20;99.90;;;;;;5051456;28;20237;-65
2021/05/26 03:10:10;;;;;;;17.57;9.23;;;9.20;99.90;;;;;;5051481;28;20286;-64
2021/05/26 03:12:36;;;;;;;12.23;8.80;;;9.20;99.90;;;;;;5051538;28;20277;-65
2021/05/26 03:15:07;;;;;;;13.40;9.33;;;9.20;99.90;;;;;;5051367;28;20525;-64
2021/05/26 03:17:32;;;;;;;9.53;8.60;;;9.20;99.90;;;;;;5051405;28;20178;-65
2021/05/26 03:19:59;;;;;;;9.47;8.53;;;9.20;99.90;;;;;;5051007;28;20193;-66
2021/05/26 03:22:25;;;;;;;13.50;10.53;;;9.20;99.90;;;;;;5051440;28;20232;-65
2021/05/26 03:24:51;;;;;;;29.63;27.20;;;9.20;99.90;;;;;;5051406;28;20297;-64
2021/05/26 03:27:20;;;;;;;11.90;9.40;;;9.20;99.90;;;;;;5051320;28;20214;-64
2021/05/26 03:29:45;;;;;;;11.50;8.63;;;9.20;99.90;;;;;;5051008;28;20825;-64
2021/05/26 03:32:11;;;;;;;12.43;11.23;;;9.10;99.90;;;;;;5051244;28;20199;-64
2021/05/26 03:34:37;;;;;;;14.80;13.57;;;9.10;99.90;;;;;;5051342;28;20204;-65
2021/05/26 03:37:02;;;;;;;10.07;7.97;;;9.10;99.90;;;;;;5051249;28;20655;-64
2021/05/26 03:39:28;;;;;;;10.23;9.07;;;9.10;99.90;;;;;;5051259;28;20694;-64
2021/05/26 03:41:54;;;;;;;11.63;7.67;;;9.00;99.90;;;;;;5050866;28;20214;-66
2021/05/26 03:44:19;;;;;;;11.40;7.40;;;9.10;99.90;;;;;;5051469;28;20179;-64
2021/05/26 03:46:45;;;;;;;7.80;7.10;;;9.00;99.90;;;;;;5051044;28;20194;-65
2021/05/26 03:49:11;;;;;;;8.20;7.40;;;8.90;99.90;;;;;;5051349;28;20174;-64
2021/05/26 03:51:37;;;;;;;11.87;8.30;;;9.00;99.90;;;;;;5050496;28;20233;-65
2021/05/26 03:54:04;;;;;;;11.23;7.20;;;9.10;99.90;;;;;;5051318;28;20179;-65
2021/05/26 03:56:29;;;;;;;9.07;8.23;;;9.00;99.90;;;;;;5051210;28;20178;-64
2021/05/26 03:58:58;;;;;;;10.00;9.03;;;9.00;99.90;;;;;;5051035;28;20182;-64
2021/05/26 04:01:24;;;;;;;9.33;8.40;;;9.10;99.90;;;;;;5050815;28;20199;-63
2021/05/26 04:03:52;;;;;;;7.60;6.93;;;9.10;99.90;;;;;;5050748;28;20209;-65
2021/05/26 04:06:18;;;;;;;8.80;7.90;;;9.10;99.90;;;;;;5054070;28;20221;-64
2021/05/26 04:08:43;;;;;;;8.90;7.23;;;9.10;99.90;;;;;;5054716;28;20576;-65
2021/05/26 04:11:09;;;;;;;8.07;7.37;;;9.10;99.90;;;;;;5054510;28;20234;-65
2021/05/26 04:13:34;;;;;;;7.80;7.10;;;9.10;99.90;;;;;;5054564;28;20233;-64
2021/05/26 04:16:00;;;;;;;8.30;6.90;;;9.20;99.90;;;;;;5054929;28;20182;-64
2021/05/26 04:18:25;;;;;;;10.70;7.63;;;9.20;99.90;;;;;;5054658;28;20555;-64
2021/05/26 04:20:51;;;;;;;7.00;6.40;;;9.20;99.90;;;;;;5054139;28;20194;-65
2021/05/26 04:23:16;;;;;;;8.17;7.40;;;9.30;99.90;;;;;;5056486;28;20208;-67
2021/05/26 04:25:48;;;;;;;7.97;7.17;;;9.30;99.90;;;;;;5055960;28;20183;-67
2021/05/26 04:28:13;;;;;;;7.63;6.93;;;9.30;99.90;;;;;;5055649;28;20179;-65
2021/05/26 04:30:39;;;;;;;7.93;7.03;;;9.30;99.90;;;;;;5055254;28;20237;-67
2021/05/26 04:33:05;;;;;;;7.83;7.23;;;9.30;99.90;;;;;;5055224;28;20260;-66
2021/05/26 04:35:30;;;;;;;7.60;7.00;;;9.40;99.90;;;;;;5055125;28;20171;-67
2021/05/26 04:37:56;;;;;;;10.20;9.23;;;9.40;99.90;;;;;;5055234;28;20179;-66
2021/05/26 04:40:21;;;;;;;9.23;8.53;;;9.40;99.90;;;;;;5055622;28;20174;-66
2021/05/26 04:42:47;;;;;;;7.80;7.17;;;9.50;99.90;;;;;;5055103;28;20982;-66
2021/05/26 04:45:13;;;;;;;6.73;6.17;;;9.50;99.90;;;;;;5037405;28;20224;-66
2021/05/26 04:47:39;;;;;;;7.30;6.43;;;9.50;99.90;;;;;;5055493;28;20652;-67
2021/05/26 04:50:05;;;;;;;6.83;6.20;;;9.50;99.90;;;;;;5055089;28;20205;-66
2021/05/26 04:52:31;;;;;;;12.80;8.63;;;9.60;99.90;;;;;;5054707;28;20193;-66
2021/05/26 04:54:56;;;;;;;6.97;6.37;;;9.70;99.90;;;;;;5055264;28;20536;-67
2021/05/26 04:57:22;;;;;;;6.73;6.20;;;9.80;99.90;;;;;;5055135;28;20678;-66
2021/05/26 04:59:47;;;;;;;6.30;5.90;;;9.90;99.90;;;;;;5054875;28;20179;-67
2021/05/26 05:02:13;;;;;;;6.83;6.17;;;10.00;99.90;;;;;;5055378;28;20193;-65
2021/05/26 05:04:39;;;;;;;9.77;9.13;;;10.10;99.90;;;;;;5055467;28;20525;-67
2021/05/26 05:07:04;;;;;;;7.53;7.07;;;10.30;99.90;;;;;;5055600;28;20163;-66
2021/05/26 05:09:30;;;;;;;7.33;6.90;;;10.50;99.90;;;;;;5055100;28;20178;-65
2021/05/26 05:11:56;;;;;;;6.53;6.00;;;10.70;99.90;;;;;;5054695;28;20206;-67
2021/05/26 05:14:21;;;;;;;6.30;5.80;;;10.80;99.90;;;;;;5054602;28;20174;-66
2021/05/26 05:16:47;;;;;;;7.93;7.33;;;10.80;99.90;;;;;;5054215;28;20171;-66
2021/05/26 05:19:12;;;;;;;6.60;6.10;;;10.90;99.90;;;;;;5055065;28;20237;-65
2021/05/26 05:21:38;;;;;;;7.23;6.53;;;10.90;99.90;;;;;;5054217;28;20202;-66
2021/05/26 05:24:04;;;;;;;5.40;5.10;;;10.90;99.90;;;;;;5054378;28;20175;-67
2021/05/26 05:26:30;;;;;;;9.13;6.50;;;11.00;99.90;;;;;;5054233;28;20174;-67
2021/05/26 05:28:55;;;;;;;6.80;6.30;;;11.10;99.90;;;;;;5054206;28;20171;-67
2021/05/26 05:31:21;;;;;;;7.17;6.57;;;11.10;99.90;;;;;;5053327;28;20750;-66
2021/05/26 05:33:47;;;;;;;6.33;5.83;;;11.20;99.90;;;;;;5054215;28;20249;-66
2021/05/26 05:36:13;;;;;;;6.63;6.23;;;11.20;99.90;;;;;;5053883;28;20194;-67
2021/05/26 05:38:38;;;;;;;5.57;5.27;;;11.20;99.90;;;;;;5055134;28;20163;-66
2021/05/26 05:41:05;;;;;;;6.07;5.77;;;11.20;99.90;;;;;;5054368;28;20183;-66
2021/05/26 05:43:31;;;;;;;6.40;6.00;;;11.20;99.90;;;;;;5037576;28;20226;-65
2021/05/26 05:45:56;;;;;;;5.67;5.33;;;11.30;99.90;;;;;;5052284;28;20663;-66
2021/05/26 05:48:22;;;;;;;9.87;7.00;;;11.30;99.90;;;;;;5053957;28;20181;-67
2021/05/26 05:50:48;;;;;;;6.77;6.27;;;11.40;99.90;;;;;;5052929;28;20298;-65
2021/05/26 05:53:13;;;;;;;6.90;6.40;;;11.40;99.90;;;;;;5054009;28;20585;-65
2021/05/26 05:55:39;;;;;;;6.20;5.80;;;11.40;99.90;;;;;;5043811;28;20211;-66
2021/05/26 05:58:05;;;;;;;7.57;7.07;;;11.50;99.90;;;;;;5033564;28;20199;-66
2021/05/26 06:00:35;;;;;;;8.10;6.90;;;11.60;99.90;;;;;;5040407;28;20201;-66
2021/05/26 06:03:00;;;;;;;8.07;7.57;;;11.70;99.90;;;;;;5052995;28;20214;-66
2021/05/26 06:05:26;;;;;;;9.30;8.80;;;11.60;99.90;;;;;;5046727;28;20707;-66
2021/05/26 06:07:52;;;;;;;7.67;7.17;;;11.60;99.90;;;;;;5033169;28;20182;-65
2021/05/26 06:10:17;;;;;;;6.57;6.17;;;11.60;99.90;;;;;;5037290;28;20256;-67
2021/05/26 06:12:43;;;;;;;7.47;6.80;;;11.70;99.90;;;;;;5052669;28;20197;-66
2021/05/26 06:15:09;;;;;;;6.33;5.93;;;11.70;99.90;;;;;;5049773;28;20541;-66
2021/05/26 06:17:35;;;;;;;6.50;5.93;;;11.70;99.90;;;;;;5033046;28;20167;-66
2021/05/26 06:20:00;;;;;;;5.90;5.60;;;11.80;99.90;;;;;;5034267;28;20182;-64
2021/05/26 06:22:27;;;;;;;6.63;6.23;;;11.70;99.90;;;;;;5033391;28;20600;-67
2021/05/26 06:24:53;;;;;;;6.37;5.87;;;11.50;99.90;;;;;;5033282;28;20186;-67
2021/05/26 06:27:19;;;;;;;7.20;6.80;;;11.40;99.90;;;;;;5052620;28;20179;-66
2021/05/26 06:29:44;;;;;;;6.80;6.30;;;11.60;99.90;;;;;;5052621;28;20221;-64
2021/05/26 06:32:10;;;;;;;6.47;5.97;;;11.50;99.90;;;;;;5034993;28;20788;-67
2021/05/26 06:34:35;;;;;;;6.30;5.90;;;11.50;99.90;;;;;;5033332;28;20167;-66
2021/05/26 06:37:01;;;;;;;7.40;7.00;;;11.50;99.90;;;;;;5049270;28;20683;-67
2021/05/26 06:39:28;;;;;;;7.40;6.90;;;11.50;99.90;;;;;;5045401;28;20262;-66
2021/05/26 06:41:54;;;;;;;6.07;5.67;;;11.60;99.90;;;;;;5041274;28;20264;-67
2021/05/26 06:44:20;;;;;;;6.77;6.33;;;11.60;99.90;;;;;;5053018;28;20259;-66
2021/05/26 06:46:45;;;;;;;6.10;5.80;;;11.60;99.90;;;;;;5052743;28;20284;-67
2021/05/26 06:49:11;;;;;;;6.10;5.80;;;11.60;99.90;;;;;;5053162;28;20178;-66
2021/05/26 06:51:37;;;;;;;6.70;6.40;;;11.60;99.90;;;;;;5047368;28;20345;-67
2021/05/26 06:54:02;;;;;;;6.83;6.33;;;11.70;99.90;;;;;;5032723;28;20179;-67
2021/05/26 06:56:28;;;;;;;6.13;5.73;;;11.70;99.90;;;;;;5033665;28;20190;-67
2021/05/26 06:58:54;;;;;;;6.40;5.90;;;11.80;99.90;;;;;;5032329;28;20175;-66
2021/05/26 07:01:19;;;;;;;5.67;5.37;;;12.00;99.90;;;;;;5033528;28;20202;-66
2021/05/26 07:03:45;;;;;;;5.90;5.60;;;12.10;99.90;;;;;;5051904;28;20301;-67
2021/05/26 07:06:10;;;;;;;6.00;5.60;;;12.20;99.90;;;;;;5052103;28;20727;-65
2021/05/26 07:08:36;;;;;;;6.13;5.70;;;12.30;99.90;;;;;;5050631;28;20182;-67
2021/05/26 07:11:02;;;;;;;6.10;5.60;;;12.50;99.90;;;;;;5051568;28;20237;-65
2021/05/26 07:13:29;;;;;;;6.90;6.00;;;12.70;99.90;;;;;;5015983;28;20234;-66
2021/05/26 07:15:55;;;;;;;6.10;5.80;;;12.90;99.90;;;;;;5032011;28;20254;-67
2021/05/26 07:18:22;;;;;;;6.30;5.90;;;12.90;99.90;;;;;;5048224;28;20266;-66
2021/05/26 07:20:48;;;;;;;5.70;5.20;;;12.70;99.90;;;;;;5051179;28;20182;-67
2021/05/26 07:23:14;;;;;;;5.83;5.43;;;12.60;99.90;;;;;;5050131;28;20189;-67
2021/05/26 07:25:39;;;;;;;6.67;6.27;;;12.60;99.90;;;;;;5046648;28;20175;-67
2021/05/26 07:28:06;;;;;;;6.50;6.10;;;12.70;99.90;;;;;;5032159;28;20184;-67
2021/05/26 07:30:31;;;;;;;6.10;5.60;;;12.90;99.90;;;;;;5033029;28;20590;-67
2021/05/26 07:32:57;;;;;;;6.63;6.27;;;13.20;99.90;;;;;;5031544;28;20191;-66
2021/05/26 07:35:23;;;;;;;7.13;6.70;;;13.60;99.90;;;;;;5033198;28;20182;-66
2021/05/26 07:37:49;;;;;;;6.17;5.67;;;13.90;99.90;;;;;;5051427;28;20224;-67
2021/05/26 07:40:15;;;;;;;8.20;7.47;;;14.30;99.90;;;;;;5053917;28;20624;-66
2021/05/26 07:42:41;;;;;;;6.83;6.27;;;14.60;99.90;;;;;;5054277;28;20201;-67
2021/05/26 07:45:08;;;;;;;6.30;5.90;;;14.80;99.90;;;;;;5056152;28;20577;-67
2021/05/26 07:47:36;;;;;;;7.50;7.10;;;14.80;99.90;;;;;;5037193;28;20175;-66
2021/05/26 07:50:03;;;;;;;6.23;5.83;;;14.80;99.90;;;;;;5035741;28;20657;-66
2021/05/26 07:52:30;;;;;;;6.27;5.97;;;14.90;99.90;;;;;;5053021;28;20281;-67
2021/05/26 07:54:57;;;;;;;6.90;6.40;;;15.10;99.90;;;;;;5055697;28;20163;-67
2021/05/26 07:57:22;;;;;;;6.20;5.80;;;15.20;99.90;;;;;;5039714;28;20645;-67
2021/05/26 07:59:48;;;;;;;6.97;6.47;;;15.30;99.90;;;;;;5035666;28;20180;-68
2021/05/26 08:02:15;;;;;;;7.87;5.20;;;15.20;99.90;;;;;;5036891;28;20211;-66
2021/05/26 08:04:41;;;;;;;6.63;6.23;;;15.20;99.90;;;;;;5035788;28;20198;-65
2021/05/26 08:07:08;;;;;;;6.37;6.07;;;15.10;99.90;;;;;;5048489;28;20174;-67
2021/05/26 08:09:35;;;;;;;6.43;6.03;;;14.90;99.90;;;;;;5056174;28;20253;-67
2021/05/26 08:12:01;;;;;;;5.83;5.53;;;14.80;99.90;;;;;;5043900;28;20203;-66
2021/05/26 08:14:26;;;;;;;6.83;6.43;;;14.70;99.90;;;;;;5036354;28;20669;-66
2021/05/26 08:16:52;;;;;;;6.33;5.73;;;14.60;99.90;;;;;;5045063;28;20179;-66
2021/05/26 08:19:18;;;;;;;6.57;6.03;;;14.40;99.90;;;;;;5055076;28;20194;-66
2021/05/26 08:21:43;;;;;;;6.40;5.90;;;14.30;99.90;;;;;;5046707;28;20214;-66
2021/05/26 08:24:11;;;;;;;5.90;5.60;;;14.30;99.90;;;;;;5035470;28;20171;-67
2021/05/26 08:26:37;;;;;;;6.07;5.73;;;14.20;99.90;;;;;;5041010;28;20175;-67
2021/05/26 08:29:04;;;;;;;6.43;5.93;;;14.20;99.90;;;;;;5035120;28;20172;-67
2021/05/26 08:31:30;;;;;;;6.50;6.20;;;14.20;99.90;;;;;;5039941;28;20210;-65
2021/05/26 08:33:56;;;;;;;6.40;6.00;;;14.20;99.90;;;;;;5055160;28;20288;-67
2021/05/26 08:36:22;;;;;;;5.90;5.60;;;14.00;99.90;;;;;;5037237;28;20210;-66
2021/05/26 08:38:48;;;;;;;6.03;5.73;;;13.90;99.90;;;;;;5054357;28;20249;-66
2021/05/26 08:41:17;;;;;;;6.57;6.20;;;13.80;99.90;;;;;;5053869;28;20794;-67
2021/05/26 08:43:42;;;;;;;6.10;5.70;;;13.60;99.90;;;;;;5054904;28;20175;-66
2021/05/26 08:46:09;;;;;;;6.57;6.17;;;13.50;99.90;;;;;;5054894;28;20208;-64
2021/05/26 08:48:35;;;;;;;6.60;6.10;;;13.60;99.90;;;;;;5055094;28;20511;-66
2021/05/26 08:51:02;;;;;;;6.50;6.10;;;13.60;99.90;;;;;;5054253;28;20201;-66
2021/05/26 08:53:28;;;;;;;6.00;5.60;;;13.80;99.90;;;;;;5054551;28;20566;-66
2021/05/26 08:55:55;;;;;;;5.77;5.37;;;14.00;99.90;;;;;;5054412;28;20171;-67
2021/05/26 08:58:21;;;;;;;6.80;5.70;;;14.30;99.90;;;;;;5054462;28;20178;-66
2021/05/26 09:00:47;;;;;;;6.30;5.87;;;14.40;99.90;;;;;;5054279;28;20269;-67
2021/05/26 09:03:14;;;;;;;5.50;5.13;;;14.50;99.90;;;;;;5053955;28;20257;-66
2021/05/26 09:05:42;;;;;;;6.63;6.13;;;14.70;99.90;;;;;;5055344;28;20171;-66
2021/05/26 09:08:17;;;;;;;6.70;6.40;;;15.20;99.90;;;;;;5054349;28;20183;-67
2021/05/26 09:10:50;;;;;;;6.20;5.90;;;15.70;99.90;;;;;;5053670;28;20190;-66
2021/05/26 09:13:45;;;;;;;7.10;6.60;;;16.00;99.90;;;;;;5054496;28;20181;-67
2021/05/26 09:16:23;;;;;;;8.17;7.77;;;16.30;99.90;;;;;;5037510;28;20218;-66
2021/05/26 09:18:59;;;;;;;7.50;7.10;;;16.20;99.90;;;;;;5054709;28;20300;-66
2021/05/26 09:21:55;;;;;;;6.80;6.40;;;16.20;99.90;;;;;;5053877;28;20241;-66
2021/05/26 09:24:21;;;;;;;7.03;6.63;;;15.90;99.90;;;;;;5038260;28;20217;-65
2021/05/26 09:26:56;;;;;;;6.67;6.30;;;15.80;99.90;;;;;;5054684;28;20198;-65
2021/05/26 09:29:46;;;;;;;6.83;6.50;;;15.90;99.90;;;;;;5036453;28;20265;-66
2021/05/26 09:32:24;;;;;;;8.00;7.50;;;15.70;99.90;;;;;;5053184;28;20225;-66
2021/05/26 09:34:57;;;;;;;6.40;6.10;;;15.60;99.90;;;;;;5053696;28;20603;-66
2021/05/26 09:37:35;;;;;;;5.80;5.50;;;15.10;99.90;;;;;;5053778;28;20203;-66
2021/05/26 09:40:07;;;;;;;5.87;5.43;;;14.80;99.90;;;;;;5053059;28;21116;-66
2021/05/26 09:42:37;;;;;;;6.40;6.10;;;14.70;99.90;;;;;;5053400;28;20189;-67
2021/05/26 09:45:17;;;;;;;6.13;5.83;;;14.60;99.90;;;;;;5053596;28;20174;-66
2021/05/26 09:47:51;;;;;;;6.33;6.03;;;14.60;99.90;;;;;;5053574;28;20167;-67
2021/05/26 09:50:17;;;;;;;5.73;5.43;;;14.70;99.90;;;;;;5052818;28;20202;-66
2021/05/26 09:52:58;;;;;;;6.50;6.10;;;14.70;99.90;;;;;;5053124;28;21704;-67
2021/05/26 09:55:38;;;;;;;6.70;6.30;;;14.80;99.90;;;;;;5053143;28;20167;-66
2021/05/26 09:58:06;;;;;;;5.83;5.53;;;14.70;99.90;;;;;;5052560;28;20261;-67
2021/05/26 10:00:32;;;;;;;7.07;6.77;;;14.90;99.90;;;;;;5052701;28;20167;-66
2021/05/26 10:02:58;;;;;;;7.10;6.67;;;15.00;99.90;;;;;;5051715;28;20210;-65
2021/05/26 10:05:25;;;;;;;6.10;5.60;;;15.10;99.90;;;;;;5053324;28;20167;-66
2021/05/26 10:07:51;;;;;;;5.80;5.40;;;15.20;99.90;;;;;;5053182;28;20210;-66
2021/05/26 10:10:18;;;;;;;6.50;6.20;;;15.20;99.90;;;;;;5053121;28;20199;-66
2021/05/26 10:12:46;;;;;;;6.93;6.63;;;15.20;99.90;;;;;;5052863;28;20606;-67
2021/05/26 10:15:13;;;;;;;6.27;5.97;;;15.00;99.90;;;;;;5051896;28;20167;-66
2021/05/26 10:17:49;;;;;;;6.37;5.80;;;15.10;99.90;;;;;;5052960;28;20652;-66
2021/05/26 10:20:16;;;;;;;5.90;5.50;;;15.40;99.90;;;;;;5052635;28;20178;-66
2021/05/26 10:22:42;;;;;;;7.30;6.90;;;15.70;99.90;;;;;;5053053;28;20218;-64
2021/05/26 10:25:11;;;;;;;7.17;6.87;;;15.60;99.90;;;;;;5052166;28;20185;-66
2021/05/26 10:27:43;;;;;;;6.67;6.37;;;15.50;99.90;;;;;;5052385;28;20178;-65
2021/05/26 10:30:09;;;;;;;6.97;6.60;;;15.70;99.90;;;;;;5051973;28;20183;-66
2021/05/26 10:32:47;;;;;;;6.13;5.53;;;15.80;99.90;;;;;;5051955;28;20179;-66
2021/05/26 10:35:13;;;;;;;6.57;6.20;;;16.00;99.90;;;;;;5052313;28;20719;-66
2021/05/26 10:37:41;;;;;;;6.47;6.07;;;16.00;99.90;;;;;;5052099;28;20232;-65
2021/05/26 10:40:37;;;;;;;6.60;6.20;;;15.90;99.90;;;;;;5051803;28;20174;-65
2021/05/26 10:43:21;;;;;;;6.53;6.00;;;15.80;99.90;;;;;;5052041;28;20236;-65
2021/05/26 10:45:53;;;;;;;6.67;6.33;;;15.90;99.90;;;;;;5051855;28;20167;-64
2021/05/26 10:48:43;;;;;;;6.63;6.00;;;15.90;99.90;;;;;;5051466;28;20163;-65
2021/05/26 10:51:11;;;;;;;6.73;6.43;;;15.90;99.90;;;;;;5051913;28;20213;-64
2021/05/26 10:53:39;;;;;;;6.47;6.00;;;15.90;99.90;;;;;;5051800;28;20590;-64
2021/05/26 10:56:05;;;;;;;7.00;6.70;;;15.90;99.90;;;;;;5051709;28;20205;-64
2021/05/26 10:58:42;;;;;;;6.30;6.00;;;15.80;99.90;;;;;;5051753;28;20171;-65
2021/05/26 11:01:14;;;;;;;6.47;6.17;;;15.80;99.90;;;;;;5051535;28;20217;-66
2021/05/26 11:03:43;;;;;;;6.17;5.83;;;15.80;99.90;;;;;;5051702;28;20166;-64
2021/05/26 11:06:14;;;;;;;6.43;5.87;;;15.70;99.90;;;;;;5051914;28;20700;-65
2021/05/26 11:08:49;;;;;;;6.03;5.73;;;15.80;99.90;;;;;;5051576;28;20171;-65
2021/05/26 11:11:24;;;;;;;5.97;5.67;;;15.70;99.90;;;;;;5051285;28;20264;-65
2021/05/26 11:16:40;;;;;;;6.03;5.70;;;15.70;99.90;;;;;;5051441;28;20582;-65
2021/05/26 11:19:14;;;;;;;7.63;5.40;;;15.60;99.90;;;;;;5032931;28;20545;-64
2021/05/26 11:21:54;;;;;;;6.23;5.93;;;15.40;99.90;;;;;;5050710;28;20634;-64
2021/05/26 11:24:21;;;;;;;5.57;5.23;;;15.30;99.90;;;;;;5051344;28;20223;-64
2021/05/26 11:26:47;;;;;;;6.40;6.00;;;14.90;99.90;;;;;;5050635;28;20183;-64
2021/05/26 11:29:13;;;;;;;6.60;6.20;;;14.70;99.90;;;;;;5051364;28;20174;-65
2021/05/26 11:31:41;;;;;;;7.20;6.80;;;14.60;99.90;;;;;;5050535;28;20324;-65
2021/05/26 11:34:07;;;;;;;8.63;7.80;;;14.60;99.90;;;;;;5051313;28;20202;-64
2021/05/26 11:36:40;;;;;;;7.07;6.57;;;14.60;99.90;;;;;;5050903;28;20202;-64
2021/05/26 11:39:32;;;;;;;7.77;7.37;;;14.70;99.90;;;;;;5051476;28;20167;-64
2021/05/26 11:42:21;;;;;;;6.00;5.70;;;14.80;99.90;;;;;;5048863;28;20202;-65
2021/05/26 11:45:07;;;;;;;5.77;5.47;;;14.90;99.90;;;;;;5049802;28;20170;-66
2021/05/26 11:47:36;;;;;;;5.70;5.40;;;15.10;99.90;;;;;;5046079;28;20186;-65
2021/05/26 11:50:14;;;;;;;6.20;5.90;;;15.40;99.90;;;;;;5050748;28;20183;-65
2021/05/26 11:53:04;;;;;;;6.03;5.63;;;15.90;99.90;;;;;;5050660;28;20236;-65
2021/05/26 11:55:30;;;;;;;8.97;8.47;;;16.50;99.90;;;;;;5050978;28;20540;-66
2021/05/26 11:57:56;;;;;;;7.20;6.80;;;17.00;99.90;;;;;;5050855;28;20175;-65
2021/05/26 12:00:35;;;;;;;6.00;5.70;;;17.30;99.90;;;;;;5050830;28;20175;-66
2021/05/26 12:03:09;;;;;;;7.07;6.57;;;17.70;99.90;;;;;;5051094;28;20198;-65
2021/05/26 12:05:42;;;;;;;5.77;5.47;;;17.90;99.90;;;;;;5051088;28;20636;-65
2021/05/26 12:08:17;;;;;;;5.80;5.40;;;18.00;99.90;;;;;;5050906;28;20278;-66
2021/05/26 12:10:45;;;;;;;5.40;5.10;;;18.00;99.90;;;;;;5050672;28;20198;-65
2021/05/26 12:13:10;;;;;;;7.40;6.90;;;18.10;99.90;;;;;;5050978;28;20222;-64
2021/05/26 12:15:37;;;;;;;6.53;6.03;;;18.30;99.90;;;;;;5050970;28;20167;-64
2021/05/26 12:18:03;;;;;;;6.10;5.60;;;18.70;99.90;;;;;;5050806;28;20183;-65
2021/05/26 12:20:29;;;;;;;6.63;6.27;;;18.70;99.90;;;;;;5050743;28;20541;-65
2021/05/26 12:22:58;;;;;;;6.60;6.20;;;18.50;99.90;;;;;;5050517;28;20222;-64
2021/05/26 12:25:35;;;;;;;6.40;5.90;;;18.40;99.90;;;;;;5051018;28;20519;-65
2021/05/26 12:28:01;;;;;;;5.70;5.40;;;18.30;99.90;;;;;;5054440;28;20182;-65
2021/05/26 12:30:28;;;;;;;6.03;5.63;;;18.30;99.90;;;;;;5054213;28;20201;-66
2021/05/26 12:33:13;;;;;;;6.67;6.37;;;18.40;99.90;;;;;;5054220;28;20260;-64
2021/05/26 12:35:39;;;;;;;5.73;5.43;;;18.50;99.90;;;;;;5054252;28;20254;-65
2021/05/26 12:38:20;;;;;;;6.07;5.77;;;18.30;99.90;;;;;;5054434;28;20221;-65
2021/05/26 12:40:48;;;;;;;6.13;5.80;;;18.20;99.90;;;;;;5053685;28;20178;-65
2021/05/26 12:43:30;;;;;;;6.17;5.77;;;18.10;99.90;;;;;;5054509;28;20245;-65
2021/05/26 12:45:56;;;;;;;6.27;5.87;;;18.00;99.90;;;;;;5053172;28;20228;-65
2021/05/26 12:48:29;;;;;;;6.73;6.33;;;17.90;99.90;;;;;;5054337;28;20309;-66
2021/05/26 12:51:00;;;;;;;7.60;7.20;;;17.30;99.90;;;;;;5053675;28;20229;-65
2021/05/26 12:53:33;;;;;;;6.10;5.80;;;17.30;99.90;;;;;;5054312;28;20167;-64
2021/05/26 12:56:02;;;;;;;6.67;6.30;;;17.40;99.90;;;;;;5053740;28;20322;-65
2021/05/26 12:58:28;;;;;;;5.77;5.30;;;17.40;99.90;;;;;;5036213;28;20166;-64